sensor_id;sensor_type;location;lat;lon;timestamp;P1;durP1;ratioP1;P2;durP2;ratioP2
60014;SDS011;45867;52.480;6.056;2023-04-16T00:00:38;78.68;;;17.17;;
60014;SDS011;45867;52.480;6.056;2023-04-16T00:03:03;72.82;;;18.42;;
60014;SDS011;45867;52.480;6.056;2023-04-16T00:05:28;65.47;;;16.80;;
60014;SDS011;45867;52.480;6.056;2023-04-16T00:07:54;76.47;;;17.13;;
60014;SDS011;45867;52.480;6.056;2023-04-16T00:10:19;75.78;;;16.75;;
60014;SDS011;45867;52.480;6.056;2023-04-16T00:12:44;69.90;;;16.67;;
60014;SDS011;45867;52.480;6.056;2023-04-16T00:15:10;76.05;;;17.35;;
60014;SDS011;45867;52.480;6.056;2023-04-16T00:17:35;63.22;;;17.10;;
60014;SDS011;45867;52.480;6.056;2023-04-16T00:20:00;76.22;;;18.40;;
60014;SDS011;45867;52.480;6.056;2023-04-16T00:22:26;81.85;;;19.63;;
60014;SDS011;45867;52.480;6.056;2023-04-16T00:24:51;56.45;;;17.00;;
60014;SDS011;45867;52.480;6.056;2023-04-16T00:27:17;69.80;;;16.73;;
60014;SDS011;45867;52.480;6.056;2023-04-16T00:29:43;68.30;;;16.92;;
60014;SDS011;45867;52.480;6.056;2023-04-16T00:32:10;85.88;;;17.50;;
60014;SDS011;45867;52.480;6.056;2023-04-16T00:34:35;87.18;;;18.73;;
60014;SDS011;45867;52.480;6.056;2023-04-16T00:37:00;73.75;;;16.95;;
60014;SDS011;45867;52.480;6.056;2023-04-16T00:39:26;66.18;;;19.13;;
60014;SDS011;45867;52.480;6.056;2023-04-16T00:41:51;70.60;;;16.27;;
60014;SDS011;45867;52.480;6.056;2023-04-16T00:44:16;73.40;;;18.67;;
60014;SDS011;45867;52.480;6.056;2023-04-16T00:46:42;84.38;;;19.88;;
60014;SDS011;45867;52.480;6.056;2023-04-16T00:49:08;72.82;;;19.88;;
60014;SDS011;45867;52.480;6.056;2023-04-16T00:51:34;99.60;;;21.33;;
60014;SDS011;45867;52.480;6.056;2023-04-16T00:53:59;78.40;;;19.10;;
60014;SDS011;45867;52.480;6.056;2023-04-16T00:56:25;95.60;;;19.60;;
60014;SDS011;45867;52.480;6.056;2023-04-16T00:58:52;85.07;;;18.90;;
60014;SDS011;45867;52.480;6.056;2023-04-16T01:01:19;91.90;;;18.95;;
60014;SDS011;45867;52.480;6.056;2023-04-16T01:03:45;80.05;;;18.75;;
60014;SDS011;45867;52.480;6.056;2023-04-16T01:06:11;83.32;;;18.85;;
60014;SDS011;45867;52.480;6.056;2023-04-16T01:08:37;91.80;;;19.95;;
60014;SDS011;45867;52.480;6.056;2023-04-16T01:11:03;90.82;;;19.90;;
60014;SDS011;45867;52.480;6.056;2023-04-16T01:13:30;97.53;;;21.35;;
60014;SDS011;45867;52.480;6.056;2023-04-16T01:15:55;85.72;;;20.35;;
60014;SDS011;45867;52.480;6.056;2023-04-16T01:18:21;88.28;;;19.98;;
60014;SDS011;45867;52.480;6.056;2023-04-16T01:20:48;73.05;;;20.45;;
60014;SDS011;45867;52.480;6.056;2023-04-16T01:23:14;87.50;;;21.80;;
60014;SDS011;45867;52.480;6.056;2023-04-16T01:25:40;79.32;;;19.80;;
60014;SDS011;45867;52.480;6.056;2023-04-16T01:28:05;63.13;;;20.40;;
60014;SDS011;45867;52.480;6.056;2023-04-16T01:30:31;75.63;;;20.42;;
60014;SDS011;45867;52.480;6.056;2023-04-16T01:32:56;76.88;;;20.65;;
60014;SDS011;45867;52.480;6.056;2023-04-16T01:35:22;88.45;;;21.27;;
60014;SDS011;45867;52.480;6.056;2023-04-16T01:37:49;80.40;;;22.67;;
60014;SDS011;45867;52.480;6.056;2023-04-16T01:40:15;76.25;;;21.15;;
60014;SDS011;45867;52.480;6.056;2023-04-16T01:42:40;78.07;;;20.65;;
60014;SDS011;45867;52.480;6.056;2023-04-16T01:45:06;87.97;;;21.83;;
60014;SDS011;45867;52.480;6.056;2023-04-16T01:47:32;69.50;;;20.85;;
60014;SDS011;45867;52.480;6.056;2023-04-16T01:49:58;81.13;;;21.42;;
60014;SDS011;45867;52.480;6.056;2023-04-16T01:52:23;80.82;;;21.35;;
60014;SDS011;45867;52.480;6.056;2023-04-16T01:54:49;83.43;;;21.80;;
60014;SDS011;45867;52.480;6.056;2023-04-16T01:57:14;86.47;;;21.83;;
60014;SDS011;45867;52.480;6.056;2023-04-16T01:59:40;85.03;;;21.85;;
60014;SDS011;45867;52.480;6.056;2023-04-16T02:02:14;82.57;;;22.30;;
60014;SDS011;45867;52.480;6.056;2023-04-16T02:04:41;81.63;;;22.45;;
60014;SDS011;45867;52.480;6.056;2023-04-16T02:07:07;87.05;;;22.15;;
60014;SDS011;45867;52.480;6.056;2023-04-16T02:09:33;85.90;;;22.95;;
60014;SDS011;45867;52.480;6.056;2023-04-16T02:12:02;94.35;;;21.75;;
60014;SDS011;45867;52.480;6.056;2023-04-16T02:14:28;92.15;;;24.13;;
60014;SDS011;45867;52.480;6.056;2023-04-16T02:16:54;75.43;;;21.98;;
60014;SDS011;45867;52.480;6.056;2023-04-16T02:19:19;89.32;;;22.65;;
60014;SDS011;45867;52.480;6.056;2023-04-16T02:21:45;75.55;;;22.33;;
60014;SDS011;45867;52.480;6.056;2023-04-16T02:24:11;74.15;;;23.10;;
60014;SDS011;45867;52.480;6.056;2023-04-16T02:26:36;75.30;;;21.55;;
60014;SDS011;45867;52.480;6.056;2023-04-16T02:29:01;74.32;;;22.15;;
60014;SDS011;45867;52.480;6.056;2023-04-16T02:31:27;67.82;;;21.20;;
60014;SDS011;45867;52.480;6.056;2023-04-16T02:33:53;69.97;;;22.38;;
60014;SDS011;45867;52.480;6.056;2023-04-16T02:36:19;70.35;;;22.10;;
60014;SDS011;45867;52.480;6.056;2023-04-16T02:38:44;67.20;;;21.05;;
60014;SDS011;45867;52.480;6.056;2023-04-16T02:41:09;67.78;;;23.65;;
60014;SDS011;45867;52.480;6.056;2023-04-16T02:43:35;72.95;;;21.98;;
60014;SDS011;45867;52.480;6.056;2023-04-16T02:46:00;64.88;;;21.25;;
60014;SDS011;45867;52.480;6.056;2023-04-16T02:48:26;60.47;;;21.48;;
60014;SDS011;45867;52.480;6.056;2023-04-16T02:50:51;66.07;;;20.95;;
60014;SDS011;45867;52.480;6.056;2023-04-16T02:53:16;68.18;;;21.83;;
60014;SDS011;45867;52.480;6.056;2023-04-16T02:55:48;58.80;;;20.45;;
60014;SDS011;45867;52.480;6.056;2023-04-16T02:58:17;61.45;;;20.98;;
60014;SDS011;45867;52.480;6.056;2023-04-16T03:00:43;67.43;;;21.35;;
60014;SDS011;45867;52.480;6.056;2023-04-16T03:03:09;66.40;;;22.08;;
60014;SDS011;45867;52.480;6.056;2023-04-16T03:05:34;69.65;;;20.73;;
60014;SDS011;45867;52.480;6.056;2023-04-16T03:07:59;63.30;;;20.95;;
60014;SDS011;45867;52.480;6.056;2023-04-16T03:10:25;60.50;;;19.98;;
60014;SDS011;45867;52.480;6.056;2023-04-16T03:12:50;61.35;;;22.00;;
60014;SDS011;45867;52.480;6.056;2023-04-16T03:15:15;64.07;;;21.10;;
60014;SDS011;45867;52.480;6.056;2023-04-16T03:17:41;59.75;;;21.17;;
60014;SDS011;45867;52.480;6.056;2023-04-16T03:20:06;67.85;;;19.77;;
60014;SDS011;45867;52.480;6.056;2023-04-16T03:22:33;57.65;;;19.73;;
60014;SDS011;45867;52.480;6.056;2023-04-16T03:24:58;58.17;;;20.00;;
60014;SDS011;45867;52.480;6.056;2023-04-16T03:27:23;57.58;;;20.60;;
60014;SDS011;45867;52.480;6.056;2023-04-16T03:29:49;62.05;;;21.67;;
60014;SDS011;45867;52.480;6.056;2023-04-16T03:32:14;56.88;;;21.92;;
60014;SDS011;45867;52.480;6.056;2023-04-16T03:34:39;66.07;;;21.02;;
60014;SDS011;45867;52.480;6.056;2023-04-16T03:37:05;49.35;;;20.48;;
60014;SDS011;45867;52.480;6.056;2023-04-16T03:39:31;50.47;;;20.08;;
60014;SDS011;45867;52.480;6.056;2023-04-16T03:41:57;59.60;;;21.00;;
60014;SDS011;45867;52.480;6.056;2023-04-16T03:44:22;56.78;;;21.10;;
60014;SDS011;45867;52.480;6.056;2023-04-16T03:46:48;51.17;;;19.45;;
60014;SDS011;45867;52.480;6.056;2023-04-16T03:49:13;59.33;;;20.63;;
60014;SDS011;45867;52.480;6.056;2023-04-16T03:51:38;56.75;;;20.42;;
60014;SDS011;45867;52.480;6.056;2023-04-16T03:54:03;61.67;;;20.85;;
60014;SDS011;45867;52.480;6.056;2023-04-16T03:56:29;59.15;;;20.38;;
60014;SDS011;45867;52.480;6.056;2023-04-16T03:58:54;49.97;;;20.08;;
60014;SDS011;45867;52.480;6.056;2023-04-16T04:01:19;60.67;;;21.05;;
60014;SDS011;45867;52.480;6.056;2023-04-16T04:03:45;65.07;;;21.17;;
60014;SDS011;45867;52.480;6.056;2023-04-16T04:06:10;57.92;;;21.05;;
60014;SDS011;45867;52.480;6.056;2023-04-16T04:08:35;62.50;;;22.13;;
60014;SDS011;45867;52.480;6.056;2023-04-16T04:11:01;57.50;;;20.88;;
60014;SDS011;45867;52.480;6.056;2023-04-16T04:13:29;59.25;;;20.83;;
60014;SDS011;45867;52.480;6.056;2023-04-16T04:15:54;56.75;;;22.05;;
60014;SDS011;45867;52.480;6.056;2023-04-16T04:18:19;53.05;;;20.92;;
60014;SDS011;45867;52.480;6.056;2023-04-16T04:20:45;74.72;;;22.50;;
60014;SDS011;45867;52.480;6.056;2023-04-16T04:23:10;57.75;;;21.63;;
60014;SDS011;45867;52.480;6.056;2023-04-16T04:25:35;52.42;;;20.73;;
60014;SDS011;45867;52.480;6.056;2023-04-16T04:28:01;59.75;;;21.40;;
60014;SDS011;45867;52.480;6.056;2023-04-16T04:30:26;58.90;;;21.83;;
60014;SDS011;45867;52.480;6.056;2023-04-16T04:32:51;50.28;;;19.55;;
60014;SDS011;45867;52.480;6.056;2023-04-16T04:35:18;54.38;;;21.67;;
60014;SDS011;45867;52.480;6.056;2023-04-16T04:37:43;58.42;;;22.00;;
60014;SDS011;45867;52.480;6.056;2023-04-16T04:40:09;55.65;;;21.00;;
60014;SDS011;45867;52.480;6.056;2023-04-16T04:42:35;52.40;;;21.02;;
60014;SDS011;45867;52.480;6.056;2023-04-16T04:45:01;51.58;;;20.88;;
60014;SDS011;45867;52.480;6.056;2023-04-16T04:47:27;55.88;;;20.38;;
60014;SDS011;45867;52.480;6.056;2023-04-16T04:49:52;61.20;;;21.38;;
60014;SDS011;45867;52.480;6.056;2023-04-16T04:52:17;61.90;;;20.77;;
60014;SDS011;45867;52.480;6.056;2023-04-16T04:54:44;61.35;;;22.05;;
60014;SDS011;45867;52.480;6.056;2023-04-16T04:57:09;63.20;;;24.10;;
60014;SDS011;45867;52.480;6.056;2023-04-16T04:59:35;73.20;;;23.38;;
60014;SDS011;45867;52.480;6.056;2023-04-16T05:02:00;64.75;;;23.33;;
60014;SDS011;45867;52.480;6.056;2023-04-16T05:04:27;73.32;;;22.63;;
60014;SDS011;45867;52.480;6.056;2023-04-16T05:06:53;66.15;;;23.42;;
60014;SDS011;45867;52.480;6.056;2023-04-16T05:09:18;92.90;;;25.30;;
60014;SDS011;45867;52.480;6.056;2023-04-16T05:11:44;76.80;;;25.85;;
60014;SDS011;45867;52.480;6.056;2023-04-16T05:14:09;82.68;;;25.58;;
60014;SDS011;45867;52.480;6.056;2023-04-16T05:16:35;82.03;;;25.23;;
60014;SDS011;45867;52.480;6.056;2023-04-16T05:19:01;83.85;;;25.90;;
60014;SDS011;45867;52.480;6.056;2023-04-16T05:21:44;78.72;;;24.58;;
60014;SDS011;45867;52.480;6.056;2023-04-16T05:24:09;75.40;;;24.80;;
60014;SDS011;45867;52.480;6.056;2023-04-16T05:26:34;84.38;;;25.80;;
60014;SDS011;45867;52.480;6.056;2023-04-16T05:29:00;76.43;;;24.02;;
60014;SDS011;45867;52.480;6.056;2023-04-16T05:31:25;75.93;;;25.25;;
60014;SDS011;45867;52.480;6.056;2023-04-16T05:33:54;70.45;;;24.95;;
60014;SDS011;45867;52.480;6.056;2023-04-16T05:36:19;74.70;;;23.95;;
60014;SDS011;45867;52.480;6.056;2023-04-16T05:38:44;69.55;;;24.92;;
60014;SDS011;45867;52.480;6.056;2023-04-16T05:41:10;87.15;;;23.75;;
60014;SDS011;45867;52.480;6.056;2023-04-16T05:43:35;71.15;;;23.60;;
60014;SDS011;45867;52.480;6.056;2023-04-16T05:46:01;81.00;;;25.50;;
60014;SDS011;45867;52.480;6.056;2023-04-16T05:48:26;81.95;;;24.55;;
60014;SDS011;45867;52.480;6.056;2023-04-16T05:50:54;74.30;;;23.90;;
60014;SDS011;45867;52.480;6.056;2023-04-16T05:53:20;79.90;;;23.95;;
60014;SDS011;45867;52.480;6.056;2023-04-16T05:55:45;81.78;;;23.25;;
60014;SDS011;45867;52.480;6.056;2023-04-16T05:58:11;68.65;;;22.38;;
60014;SDS011;45867;52.480;6.056;2023-04-16T06:00:36;76.45;;;24.98;;
60014;SDS011;45867;52.480;6.056;2023-04-16T06:03:01;75.30;;;23.80;;
60014;SDS011;45867;52.480;6.056;2023-04-16T06:05:27;77.75;;;24.48;;
60014;SDS011;45867;52.480;6.056;2023-04-16T06:07:53;80.00;;;23.58;;
60014;SDS011;45867;52.480;6.056;2023-04-16T06:10:18;78.97;;;25.30;;
60014;SDS011;45867;52.480;6.056;2023-04-16T06:12:43;79.10;;;24.00;;
60014;SDS011;45867;52.480;6.056;2023-04-16T06:15:12;84.10;;;24.55;;
60014;SDS011;45867;52.480;6.056;2023-04-16T06:17:37;84.40;;;24.38;;
60014;SDS011;45867;52.480;6.056;2023-04-16T06:20:02;79.82;;;22.90;;
60014;SDS011;45867;52.480;6.056;2023-04-16T06:22:28;80.13;;;23.92;;
60014;SDS011;45867;52.480;6.056;2023-04-16T06:24:54;76.53;;;23.80;;
60014;SDS011;45867;52.480;6.056;2023-04-16T06:27:19;85.43;;;26.13;;
60014;SDS011;45867;52.480;6.056;2023-04-16T06:29:45;84.25;;;25.70;;
60014;SDS011;45867;52.480;6.056;2023-04-16T06:32:10;82.55;;;25.17;;
60014;SDS011;45867;52.480;6.056;2023-04-16T06:34:36;78.72;;;24.60;;
60014;SDS011;45867;52.480;6.056;2023-04-16T06:37:02;76.32;;;25.00;;
60014;SDS011;45867;52.480;6.056;2023-04-16T06:39:27;85.07;;;24.20;;
60014;SDS011;45867;52.480;6.056;2023-04-16T06:41:53;73.50;;;25.17;;
60014;SDS011;45867;52.480;6.056;2023-04-16T06:44:18;74.75;;;25.05;;
60014;SDS011;45867;52.480;6.056;2023-04-16T06:46:43;71.15;;;24.13;;
60014;SDS011;45867;52.480;6.056;2023-04-16T06:49:09;71.10;;;23.77;;
60014;SDS011;45867;52.480;6.056;2023-04-16T06:51:34;66.05;;;24.13;;
60014;SDS011;45867;52.480;6.056;2023-04-16T06:54:00;77.80;;;24.77;;
60014;SDS011;45867;52.480;6.056;2023-04-16T06:56:25;70.93;;;24.30;;
60014;SDS011;45867;52.480;6.056;2023-04-16T06:58:50;72.88;;;25.00;;
60014;SDS011;45867;52.480;6.056;2023-04-16T07:01:16;72.75;;;24.23;;
60014;SDS011;45867;52.480;6.056;2023-04-16T07:03:42;68.70;;;23.92;;
60014;SDS011;45867;52.480;6.056;2023-04-16T07:06:08;73.72;;;24.90;;
60014;SDS011;45867;52.480;6.056;2023-04-16T07:08:33;67.50;;;25.00;;
60014;SDS011;45867;52.480;6.056;2023-04-16T07:10:58;66.95;;;24.23;;
60014;SDS011;45867;52.480;6.056;2023-04-16T07:13:24;76.45;;;23.85;;
60014;SDS011;45867;52.480;6.056;2023-04-16T07:15:50;66.68;;;24.35;;
60014;SDS011;45867;52.480;6.056;2023-04-16T07:18:15;77.22;;;24.10;;
60014;SDS011;45867;52.480;6.056;2023-04-16T07:20:40;73.88;;;25.05;;
60014;SDS011;45867;52.480;6.056;2023-04-16T07:23:06;73.10;;;23.63;;
60014;SDS011;45867;52.480;6.056;2023-04-16T07:25:31;65.63;;;22.50;;
60014;SDS011;45867;52.480;6.056;2023-04-16T07:27:57;57.70;;;23.98;;
60014;SDS011;45867;52.480;6.056;2023-04-16T07:30:22;48.75;;;20.17;;
60014;SDS011;45867;52.480;6.056;2023-04-16T07:32:47;49.03;;;19.45;;
60014;SDS011;45867;52.480;6.056;2023-04-16T07:35:13;51.72;;;19.67;;
60014;SDS011;45867;52.480;6.056;2023-04-16T07:37:38;47.83;;;20.73;;
60014;SDS011;45867;52.480;6.056;2023-04-16T07:40:04;59.22;;;21.15;;
60014;SDS011;45867;52.480;6.056;2023-04-16T07:42:29;51.88;;;19.75;;
60014;SDS011;45867;52.480;6.056;2023-04-16T07:44:55;51.80;;;20.23;;
60014;SDS011;45867;52.480;6.056;2023-04-16T07:47:20;61.75;;;22.15;;
60014;SDS011;45867;52.480;6.056;2023-04-16T07:49:47;52.67;;;19.88;;
60014;SDS011;45867;52.480;6.056;2023-04-16T07:52:13;51.25;;;20.90;;
60014;SDS011;45867;52.480;6.056;2023-04-16T07:54:39;60.08;;;19.85;;
60014;SDS011;45867;52.480;6.056;2023-04-16T07:57:04;57.63;;;20.60;;
60014;SDS011;45867;52.480;6.056;2023-04-16T07:59:30;52.75;;;19.80;;
60014;SDS011;45867;52.480;6.056;2023-04-16T08:01:55;50.95;;;19.10;;
60014;SDS011;45867;52.480;6.056;2023-04-16T08:04:20;47.47;;;18.50;;
60014;SDS011;45867;52.480;6.056;2023-04-16T08:06:49;45.55;;;17.27;;
60014;SDS011;45867;52.480;6.056;2023-04-16T08:09:15;51.78;;;18.45;;
60014;SDS011;45867;52.480;6.056;2023-04-16T08:11:40;47.28;;;18.70;;
60014;SDS011;45867;52.480;6.056;2023-04-16T08:14:06;45.58;;;18.42;;
60014;SDS011;45867;52.480;6.056;2023-04-16T08:16:31;41.85;;;17.05;;
60014;SDS011;45867;52.480;6.056;2023-04-16T08:18:56;37.50;;;16.92;;
60014;SDS011;45867;52.480;6.056;2023-04-16T08:21:22;44.95;;;17.13;;
60014;SDS011;45867;52.480;6.056;2023-04-16T08:23:47;38.90;;;17.00;;
60014;SDS011;45867;52.480;6.056;2023-04-16T08:26:13;37.67;;;16.58;;
60014;SDS011;45867;52.480;6.056;2023-04-16T08:28:38;32.22;;;16.40;;
60014;SDS011;45867;52.480;6.056;2023-04-16T08:31:03;37.42;;;17.30;;
60014;SDS011;45867;52.480;6.056;2023-04-16T08:33:29;34.05;;;16.60;;
60014;SDS011;45867;52.480;6.056;2023-04-16T08:35:54;35.58;;;16.95;;
60014;SDS011;45867;52.480;6.056;2023-04-16T08:38:20;38.80;;;16.90;;
60014;SDS011;45867;52.480;6.056;2023-04-16T08:40:45;33.20;;;16.25;;
60014;SDS011;45867;52.480;6.056;2023-04-16T08:43:11;40.47;;;17.20;;
60014;SDS011;45867;52.480;6.056;2023-04-16T08:45:39;52.85;;;18.33;;
60014;SDS011;45867;52.480;6.056;2023-04-16T08:48:06;48.08;;;17.20;;
60014;SDS011;45867;52.480;6.056;2023-04-16T08:50:32;48.15;;;17.67;;
60014;SDS011;45867;52.480;6.056;2023-04-16T08:52:59;41.75;;;17.50;;
60014;SDS011;45867;52.480;6.056;2023-04-16T08:58:03;46.72;;;17.70;;
60014;SDS011;45867;52.480;6.056;2023-04-16T09:00:38;44.30;;;17.42;;
60014;SDS011;45867;52.480;6.056;2023-04-16T09:03:04;48.35;;;17.55;;
60014;SDS011;45867;52.480;6.056;2023-04-16T09:05:30;55.17;;;18.23;;
60014;SDS011;45867;52.480;6.056;2023-04-16T09:07:57;43.15;;;18.10;;
60014;SDS011;45867;52.480;6.056;2023-04-16T09:10:22;37.45;;;18.17;;
60014;SDS011;45867;52.480;6.056;2023-04-16T09:12:50;53.30;;;18.55;;
60014;SDS011;45867;52.480;6.056;2023-04-16T09:15:16;45.83;;;18.00;;
60014;SDS011;45867;52.480;6.056;2023-04-16T09:17:41;49.50;;;17.85;;
60014;SDS011;45867;52.480;6.056;2023-04-16T09:20:07;53.42;;;17.77;;
60014;SDS011;45867;52.480;6.056;2023-04-16T09:22:34;44.80;;;17.42;;
60014;SDS011;45867;52.480;6.056;2023-04-16T09:25:00;47.05;;;17.10;;
60014;SDS011;45867;52.480;6.056;2023-04-16T09:27:26;46.75;;;15.77;;
60014;SDS011;45867;52.480;6.056;2023-04-16T09:29:52;39.95;;;17.38;;
60014;SDS011;45867;52.480;6.056;2023-04-16T09:32:18;49.45;;;17.52;;
60014;SDS011;45867;52.480;6.056;2023-04-16T09:34:53;51.30;;;18.08;;
60014;SDS011;45867;52.480;6.056;2023-04-16T09:37:22;48.28;;;16.67;;
60014;SDS011;45867;52.480;6.056;2023-04-16T09:39:54;38.28;;;16.33;;
60014;SDS011;45867;52.480;6.056;2023-04-16T09:42:31;36.08;;;15.75;;
60014;SDS011;45867;52.480;6.056;2023-04-16T09:44:58;47.22;;;17.88;;
60014;SDS011;45867;52.480;6.056;2023-04-16T09:47:45;40.75;;;16.25;;
60014;SDS011;45867;52.480;6.056;2023-04-16T09:50:13;36.95;;;15.88;;
60014;SDS011;45867;52.480;6.056;2023-04-16T09:52:41;37.38;;;15.32;;
60014;SDS011;45867;52.480;6.056;2023-04-16T09:55:09;32.80;;;15.25;;
60014;SDS011;45867;52.480;6.056;2023-04-16T09:57:35;45.33;;;16.42;;
60014;SDS011;45867;52.480;6.056;2023-04-16T10:00:05;40.85;;;16.27;;
60014;SDS011;45867;52.480;6.056;2023-04-16T10:02:33;38.58;;;15.82;;
60014;SDS011;45867;52.480;6.056;2023-04-16T10:05:00;48.75;;;15.95;;
60014;SDS011;45867;52.480;6.056;2023-04-16T10:07:27;39.20;;;15.20;;
60014;SDS011;45867;52.480;6.056;2023-04-16T10:09:53;38.35;;;15.57;;
60014;SDS011;45867;52.480;6.056;2023-04-16T10:12:19;48.28;;;15.23;;
60014;SDS011;45867;52.480;6.056;2023-04-16T10:14:45;32.90;;;14.63;;
60014;SDS011;45867;52.480;6.056;2023-04-16T10:17:10;35.45;;;15.20;;
60014;SDS011;45867;52.480;6.056;2023-04-16T10:19:36;39.53;;;14.70;;
60014;SDS011;45867;52.480;6.056;2023-04-16T10:22:04;39.22;;;16.10;;
60014;SDS011;45867;52.480;6.056;2023-04-16T10:24:31;44.58;;;15.27;;
60014;SDS011;45867;52.480;6.056;2023-04-16T10:26:58;38.30;;;13.77;;
60014;SDS011;45867;52.480;6.056;2023-04-16T10:29:24;39.00;;;15.43;;
60014;SDS011;45867;52.480;6.056;2023-04-16T10:31:53;34.75;;;14.63;;
60014;SDS011;45867;52.480;6.056;2023-04-16T10:34:20;36.92;;;15.63;;
60014;SDS011;45867;52.480;6.056;2023-04-16T10:36:49;42.28;;;14.73;;
60014;SDS011;45867;52.480;6.056;2023-04-16T10:39:20;38.87;;;15.00;;
60014;SDS011;45867;52.480;6.056;2023-04-16T10:41:47;35.40;;;15.07;;
60014;SDS011;45867;52.480;6.056;2023-04-16T10:44:15;39.45;;;15.85;;
60014;SDS011;45867;52.480;6.056;2023-04-16T10:46:42;45.13;;;16.10;;
60014;SDS011;45867;52.480;6.056;2023-04-16T10:54:22;40.53;;;15.70;;
60014;SDS011;45867;52.480;6.056;2023-04-16T10:56:50;34.75;;;15.63;;
60014;SDS011;45867;52.480;6.056;2023-04-16T10:59:19;40.17;;;15.95;;
60014;SDS011;45867;52.480;6.056;2023-04-16T11:01:48;39.60;;;15.45;;
60014;SDS011;45867;52.480;6.056;2023-04-16T11:09:59;41.75;;;13.65;;
60014;SDS011;45867;52.480;6.056;2023-04-16T11:12:37;37.72;;;14.32;;
60014;SDS011;45867;52.480;6.056;2023-04-16T11:15:10;37.55;;;14.35;;
60014;SDS011;45867;52.480;6.056;2023-04-16T11:17:38;38.25;;;15.00;;
60014;SDS011;45867;52.480;6.056;2023-04-16T11:20:23;36.28;;;14.63;;
60014;SDS011;45867;52.480;6.056;2023-04-16T11:22:50;41.03;;;13.85;;
60014;SDS011;45867;52.480;6.056;2023-04-16T11:25:21;36.70;;;14.70;;
60014;SDS011;45867;52.480;6.056;2023-04-16T11:27:50;37.35;;;13.18;;
60014;SDS011;45867;52.480;6.056;2023-04-16T11:30:17;33.83;;;13.75;;
60014;SDS011;45867;52.480;6.056;2023-04-16T11:32:43;41.90;;;14.73;;
60014;SDS011;45867;52.480;6.056;2023-04-16T11:35:13;36.47;;;14.27;;
60014;SDS011;45867;52.480;6.056;2023-04-16T11:37:40;32.08;;;13.60;;
60014;SDS011;45867;52.480;6.056;2023-04-16T11:40:06;36.05;;;14.70;;
60014;SDS011;45867;52.480;6.056;2023-04-16T11:42:33;32.45;;;13.77;;
60014;SDS011;45867;52.480;6.056;2023-04-16T11:45:04;39.57;;;15.27;;
60014;SDS011;45867;52.480;6.056;2023-04-16T11:47:31;41.92;;;14.43;;
60014;SDS011;45867;52.480;6.056;2023-04-16T11:50:16;43.60;;;14.30;;
60014;SDS011;45867;52.480;6.056;2023-04-16T11:52:52;35.95;;;13.30;;
60014;SDS011;45867;52.480;6.056;2023-04-16T11:55:20;33.28;;;14.18;;
60014;SDS011;45867;52.480;6.056;2023-04-16T11:57:46;37.33;;;14.40;;
60014;SDS011;45867;52.480;6.056;2023-04-16T12:00:12;35.53;;;13.57;;
60014;SDS011;45867;52.480;6.056;2023-04-16T12:02:53;33.47;;;15.02;;
60014;SDS011;45867;52.480;6.056;2023-04-16T12:05:32;33.33;;;14.05;;
60014;SDS011;45867;52.480;6.056;2023-04-16T12:08:03;28.38;;;12.50;;
60014;SDS011;45867;52.480;6.056;2023-04-16T12:10:31;33.80;;;13.70;;
60014;SDS011;45867;52.480;6.056;2023-04-16T12:13:12;29.15;;;13.15;;
60014;SDS011;45867;52.480;6.056;2023-04-16T12:15:43;42.30;;;14.05;;
60014;SDS011;45867;52.480;6.056;2023-04-16T12:18:13;32.67;;;13.20;;
60014;SDS011;45867;52.480;6.056;2023-04-16T12:20:40;34.30;;;14.07;;
60014;SDS011;45867;52.480;6.056;2023-04-16T12:23:07;33.47;;;13.20;;
60014;SDS011;45867;52.480;6.056;2023-04-16T12:25:32;34.13;;;13.90;;
60014;SDS011;45867;52.480;6.056;2023-04-16T12:27:59;29.13;;;13.20;;
60014;SDS011;45867;52.480;6.056;2023-04-16T12:30:25;30.35;;;13.38;;
60014;SDS011;45867;52.480;6.056;2023-04-16T12:33:12;34.67;;;14.98;;
60014;SDS011;45867;52.480;6.056;2023-04-16T12:35:41;43.72;;;14.23;;
60014;SDS011;45867;52.480;6.056;2023-04-16T12:38:08;29.60;;;14.18;;
60014;SDS011;45867;52.480;6.056;2023-04-16T12:40:33;33.50;;;13.95;;
60014;SDS011;45867;52.480;6.056;2023-04-16T12:43:00;32.00;;;14.00;;
60014;SDS011;45867;52.480;6.056;2023-04-16T12:45:28;34.83;;;13.13;;
60014;SDS011;45867;52.480;6.056;2023-04-16T12:47:53;34.30;;;14.15;;
60014;SDS011;45867;52.480;6.056;2023-04-16T12:50:19;27.60;;;12.93;;
60014;SDS011;45867;52.480;6.056;2023-04-16T12:52:45;31.65;;;13.55;;
60014;SDS011;45867;52.480;6.056;2023-04-16T12:55:15;31.70;;;13.85;;
60014;SDS011;45867;52.480;6.056;2023-04-16T12:57:40;25.65;;;14.02;;
60014;SDS011;45867;52.480;6.056;2023-04-16T13:00:06;33.90;;;13.73;;
60014;SDS011;45867;52.480;6.056;2023-04-16T13:02:34;35.15;;;13.85;;
60014;SDS011;45867;52.480;6.056;2023-04-16T13:04:59;26.48;;;12.68;;
60014;SDS011;45867;52.480;6.056;2023-04-16T13:07:25;29.38;;;13.50;;
60014;SDS011;45867;52.480;6.056;2023-04-16T13:09:52;38.78;;;14.10;;
60014;SDS011;45867;52.480;6.056;2023-04-16T13:12:17;39.78;;;13.25;;
60014;SDS011;45867;52.480;6.056;2023-04-16T13:14:42;38.90;;;14.27;;
60014;SDS011;45867;52.480;6.056;2023-04-16T13:17:08;31.98;;;14.85;;
60014;SDS011;45867;52.480;6.056;2023-04-16T13:19:33;29.30;;;13.63;;
60014;SDS011;45867;52.480;6.056;2023-04-16T13:21:59;28.00;;;13.00;;
60014;SDS011;45867;52.480;6.056;2023-04-16T13:24:24;30.63;;;13.93;;
60014;SDS011;45867;52.480;6.056;2023-04-16T13:26:50;27.52;;;13.10;;
60014;SDS011;45867;52.480;6.056;2023-04-16T13:29:20;32.58;;;14.80;;
60014;SDS011;45867;52.480;6.056;2023-04-16T13:31:45;31.38;;;13.30;;
60014;SDS011;45867;52.480;6.056;2023-04-16T13:34:11;30.17;;;13.40;;
60014;SDS011;45867;52.480;6.056;2023-04-16T13:36:36;40.85;;;14.40;;
60014;SDS011;45867;52.480;6.056;2023-04-16T13:39:02;28.70;;;12.68;;
60014;SDS011;45867;52.480;6.056;2023-04-16T13:41:34;36.15;;;13.32;;
60014;SDS011;45867;52.480;6.056;2023-04-16T13:44:00;32.38;;;13.07;;
60014;SDS011;45867;52.480;6.056;2023-04-16T13:46:25;33.83;;;13.70;;
60014;SDS011;45867;52.480;6.056;2023-04-16T13:48:51;29.70;;;13.57;;
60014;SDS011;45867;52.480;6.056;2023-04-16T13:51:16;30.58;;;13.00;;
60014;SDS011;45867;52.480;6.056;2023-04-16T13:53:41;41.80;;;14.50;;
60014;SDS011;45867;52.480;6.056;2023-04-16T13:56:07;28.70;;;12.43;;
60014;SDS011;45867;52.480;6.056;2023-04-16T13:58:32;34.13;;;13.73;;
60014;SDS011;45867;52.480;6.056;2023-04-16T14:00:58;36.67;;;13.13;;
60014;SDS011;45867;52.480;6.056;2023-04-16T14:03:24;27.45;;;12.85;;
60014;SDS011;45867;52.480;6.056;2023-04-16T14:05:49;28.70;;;12.65;;
60014;SDS011;45867;52.480;6.056;2023-04-16T14:08:15;32.83;;;13.13;;
60014;SDS011;45867;52.480;6.056;2023-04-16T14:10:40;27.42;;;12.75;;
60014;SDS011;45867;52.480;6.056;2023-04-16T14:13:06;28.95;;;12.18;;
60014;SDS011;45867;52.480;6.056;2023-04-16T14:15:31;27.13;;;12.50;;
60014;SDS011;45867;52.480;6.056;2023-04-16T14:17:57;25.90;;;12.38;;
60014;SDS011;45867;52.480;6.056;2023-04-16T14:20:22;37.72;;;14.00;;
60014;SDS011;45867;52.480;6.056;2023-04-16T14:22:48;24.25;;;12.10;;
60014;SDS011;45867;52.480;6.056;2023-04-16T14:25:13;32.17;;;12.63;;
60014;SDS011;45867;52.480;6.056;2023-04-16T14:27:39;31.17;;;13.75;;
60014;SDS011;45867;52.480;6.056;2023-04-16T14:30:05;25.02;;;11.98;;